Time;durP1;ratioP1;P1;durP2;ratioP2;P2;SDS_P1;SDS_P2;PMS_P1;PMS_P2;Temp;Humidity;BMP_temperature;BMP_pressure;BME280_temperature;BME280_humidity;BME280_pressure;Samples;Min_cycle;Max_cycle;Signal;HPM_P1;HPM_P2
2022/12/06 00:01:03;;;;;;;18.02;10.98;;;7.10;99.90;;;;;;5028126;28;20050;-67
2022/12/06 00:03:28;;;;;;;17.27;11.77;;;7.10;99.90;;;;;;5016192;28;20463;-67
2022/12/06 00:06:00;;;;;;;17.58;11.18;;;7.10;99.90;;;;;;5045315;28;20038;-67
2022/12/06 00:08:25;;;;;;;14.98;11.05;;;7.00;99.90;;;;;;5030008;28;20129;-67
2022/12/06 00:10:51;;;;;;;14.57;11.02;;;7.00;99.90;;;;;;5032438;28;20071;-67
2022/12/06 00:13:16;;;;;;;13.02;9.30;;;6.90;99.90;;;;;;5030091;28;20036;-66
2022/12/06 00:15:42;;;;;;;17.30;10.55;;;6.90;99.90;;;;;;5029005;28;20033;-66
2022/12/06 00:18:07;;;;;;;16.08;11.73;;;6.90;99.90;;;;;;5031060;28;20057;-67
2022/12/06 00:20:33;;;;;;;18.60;11.60;;;6.90;99.90;;;;;;5029134;28;20464;-66
2022/12/06 00:22:59;;;;;;;16.58;10.65;;;6.90;99.90;;;;;;5030708;28;20052;-66
2022/12/06 00:25:24;;;;;;;18.40;11.73;;;7.00;99.90;;;;;;5029197;28;20075;-66
2022/12/06 00:27:50;;;;;;;14.95;9.73;;;7.00;99.90;;;;;;5030721;28;20025;-66
2022/12/06 00:30:16;;;;;;;15.15;10.48;;;6.90;99.90;;;;;;5029185;28;20029;-67
2022/12/06 00:32:42;;;;;;;16.02;10.50;;;6.90;99.90;;;;;;5030194;28;20061;-67
2022/12/06 00:35:07;;;;;;;16.50;12.13;;;6.90;99.90;;;;;;5028523;28;20053;-66
2022/12/06 00:37:33;;;;;;;16.92;10.25;;;6.90;99.90;;;;;;5028948;28;20404;-66
2022/12/06 00:39:58;;;;;;;14.02;10.82;;;6.90;99.90;;;;;;5030345;28;20041;-67
2022/12/06 00:42:24;;;;;;;14.95;9.70;;;6.90;99.90;;;;;;5033064;28;20026;-67
2022/12/06 00:44:50;;;;;;;14.68;9.82;;;6.90;99.90;;;;;;5034341;28;20129;-67
2022/12/06 00:47:15;;;;;;;13.20;9.25;;;6.90;99.90;;;;;;5032864;28;20029;-67
2022/12/06 00:49:41;;;;;;;14.02;9.48;;;6.90;99.90;;;;;;5034103;28;20071;-67
2022/12/06 00:52:06;;;;;;;13.35;8.85;;;6.90;99.90;;;;;;5032612;28;20067;-67
2022/12/06 00:54:32;;;;;;;14.98;9.38;;;6.80;99.90;;;;;;5034133;28;20032;-66
2022/12/06 00:56:57;;;;;;;12.65;9.10;;;6.80;99.90;;;;;;5032420;28;20524;-67
2022/12/06 00:59:23;;;;;;;12.75;9.82;;;6.80;99.90;;;;;;5032891;28;20095;-67
2022/12/06 01:01:48;;;;;;;13.38;8.93;;;6.80;99.90;;;;;;5030310;28;20037;-67
2022/12/06 01:04:14;;;;;;;15.25;9.70;;;6.80;99.90;;;;;;5048256;28;20021;-67
2022/12/06 01:06:40;;;;;;;14.85;9.93;;;6.80;99.90;;;;;;5033767;28;20076;-67
2022/12/06 01:09:08;;;;;;;13.20;10.00;;;6.80;99.90;;;;;;5031905;28;20490;-66
2022/12/06 01:11:34;;;;;;;14.93;10.27;;;6.70;99.90;;;;;;5033147;28;20373;-67
2022/12/06 01:14:00;;;;;;;13.73;9.50;;;6.70;99.90;;;;;;5031900;28;20021;-66
2022/12/06 01:16:29;;;;;;;14.07;9.90;;;6.70;99.90;;;;;;5033475;28;20024;-66
2022/12/06 01:19:00;;;;;;;14.40;9.93;;;6.70;99.90;;;;;;5033490;28;20484;-65
2022/12/06 01:21:27;;;;;;;14.50;9.75;;;6.70;99.90;;;;;;5032103;28;20037;-66
2022/12/06 01:23:55;;;;;;;12.98;9.93;;;6.70;99.90;;;;;;5026643;28;20098;-65
2022/12/06 01:26:26;;;;;;;13.60;8.95;;;6.60;99.90;;;;;;5020586;28;20385;-65
2022/12/06 01:28:52;;;;;;;14.15;9.65;;;6.60;99.90;;;;;;5017427;28;20036;-66
2022/12/06 01:31:19;;;;;;;13.52;9.18;;;6.60;99.90;;;;;;5031088;28;20372;-66
2022/12/06 01:33:45;;;;;;;14.55;9.63;;;6.60;99.90;;;;;;5033102;28;20037;-66
2022/12/06 01:36:19;;;;;;;12.73;9.52;;;6.60;99.90;;;;;;5032605;28;20104;-66
2022/12/06 01:38:52;;;;;;;11.93;8.45;;;6.60;99.90;;;;;;5032915;28;20045;-67
2022/12/06 01:41:19;;;;;;;12.68;9.18;;;6.50;99.90;;;;;;5032377;28;20026;-67
2022/12/06 01:43:45;;;;;;;12.10;8.65;;;6.50;99.90;;;;;;5031587;28;20030;-67
2022/12/06 01:46:16;;;;;;;11.85;8.50;;;6.50;99.90;;;;;;5032106;28;20103;-66
2022/12/06 01:48:42;;;;;;;12.18;9.38;;;6.50;99.90;;;;;;5032555;28;20361;-66
2022/12/06 01:51:12;;;;;;;11.57;7.88;;;6.50;99.90;;;;;;5032894;28;20068;-67
2022/12/06 01:53:39;;;;;;;13.57;8.73;;;6.50;99.90;;;;;;5032562;28;20087;-67
2022/12/06 01:56:06;;;;;;;12.65;8.95;;;6.50;99.90;;;;;;5031965;28;20030;-67
2022/12/06 01:58:37;;;;;;;12.35;8.40;;;6.50;99.90;;;;;;5030144;28;20035;-66
2022/12/06 02:01:02;;;;;;;13.40;8.85;;;6.50;99.90;;;;;;5027635;28;20058;-67
2022/12/06 02:03:32;;;;;;;12.02;8.73;;;6.50;99.90;;;;;;5032367;28;20104;-67
2022/12/06 02:05:59;;;;;;;13.07;9.20;;;6.50;99.90;;;;;;5031784;28;20473;-66
2022/12/06 02:08:26;;;;;;;13.43;9.07;;;6.40;99.90;;;;;;5033028;28;20037;-67
2022/12/06 02:10:52;;;;;;;12.75;8.75;;;6.40;99.90;;;;;;5030828;28;20060;-67
2022/12/06 02:13:17;;;;;;;14.27;9.05;;;6.40;99.90;;;;;;5031963;28;20061;-67
2022/12/06 02:15:53;;;;;;;12.27;8.82;;;6.40;99.90;;;;;;5030414;28;20304;-67
2022/12/06 02:18:52;;;;;;;17.73;9.45;;;6.40;99.90;;;;;;5032757;28;20040;-67
2022/12/06 02:21:39;;;;;;;12.70;8.57;;;6.40;99.90;;;;;;5029001;28;20036;-67
2022/12/06 02:24:19;;;;;;;13.45;10.23;;;6.40;99.90;;;;;;5032660;28;20112;-68
2022/12/06 02:27:16;;;;;;;14.07;9.05;;;6.40;99.90;;;;;;5030239;28;20033;-66
2022/12/06 02:30:07;;;;;;;13.70;9.45;;;6.40;99.90;;;;;;4946786;28;20094;-67
2022/12/06 02:32:38;;;;;;;14.43;9.27;;;6.40;99.90;;;;;;5032491;28;20029;-66
2022/12/06 02:35:06;;;;;;;12.85;9.15;;;6.40;99.90;;;;;;5031020;28;20025;-67
2022/12/06 02:37:55;;;;;;;13.75;9.45;;;6.40;99.90;;;;;;5030765;28;20083;-67
2022/12/06 02:40:45;;;;;;;12.65;9.35;;;6.40;99.90;;;;;;5028694;28;20129;-66
2022/12/06 02:43:24;;;;;;;13.98;8.88;;;6.40;99.90;;;;;;5028902;28;20065;-67
2022/12/06 02:46:12;;;;;;;11.68;7.88;;;6.40;99.90;;;;;;5026371;28;20534;-67
2022/12/06 02:49:01;;;;;;;12.82;8.15;;;6.40;99.90;;;;;;5031599;28;20044;-67
2022/12/06 02:51:49;;;;;;;11.75;7.97;;;6.40;99.90;;;;;;5030188;28;20084;-67
2022/12/06 02:54:35;;;;;;;11.35;7.95;;;6.40;99.90;;;;;;5029893;28;20057;-67
2022/12/06 02:57:38;;;;;;;10.80;8.02;;;6.40;99.90;;;;;;5030983;28;20051;-67
2022/12/06 03:00:27;;;;;;;12.73;8.27;;;6.40;99.90;;;;;;5025421;28;20501;-67
2022/12/06 03:03:37;;;;;;;11.05;7.82;;;6.40;99.90;;;;;;5029147;28;20492;-66
2022/12/06 03:06:48;;;;;;;11.07;7.57;;;6.40;99.90;;;;;;5030716;28;20049;-67
2022/12/06 03:10:10;;;;;;;15.52;7.93;;;6.40;99.90;;;;;;5029079;28;20021;-66
2022/12/06 03:13:15;;;;;;;11.80;7.47;;;6.40;99.90;;;;;;5029415;28;20469;-67
2022/12/06 03:15:45;;;;;;;10.83;7.17;;;6.40;99.90;;;;;;5029371;28;20049;-66
2022/12/06 03:18:48;;;;;;;13.10;8.13;;;6.30;99.90;;;;;;5031766;28;20532;-65
2022/12/06 03:21:27;;;;;;;13.05;8.55;;;6.30;99.90;;;;;;5029852;28;20049;-65
2022/12/06 03:23:54;;;;;;;12.88;7.88;;;6.30;99.90;;;;;;5031381;28;20164;-66
2022/12/06 03:26:25;;;;;;;13.35;8.75;;;6.40;99.90;;;;;;5030035;28;20037;-66
2022/12/06 03:28:54;;;;;;;14.20;9.90;;;6.30;99.90;;;;;;5030645;28;20113;-66
2022/12/06 03:31:22;;;;;;;14.48;9.35;;;6.40;99.90;;;;;;5030329;28;20041;-66
2022/12/06 03:34:16;;;;;;;12.98;9.23;;;6.40;99.90;;;;;;5030865;28;20029;-66
2022/12/06 03:36:46;;;;;;;13.63;9.48;;;6.40;99.90;;;;;;5022653;28;20040;-65
2022/12/06 03:39:15;;;;;;;17.00;9.20;;;6.40;99.90;;;;;;5030781;28;20083;-66
2022/12/06 03:41:50;;;;;;;17.02;10.43;;;6.40;99.90;;;;;;5030550;28;20022;-66
2022/12/06 03:44:15;;;;;;;12.63;9.05;;;6.40;99.90;;;;;;5029641;28;20033;-66
2022/12/06 03:46:48;;;;;;;14.90;9.98;;;6.30;99.90;;;;;;5030017;28;20040;-66
2022/12/06 03:49:19;;;;;;;12.82;9.18;;;6.30;99.90;;;;;;5029734;28;20021;-65
2022/12/06 03:51:45;;;;;;;14.73;10.13;;;6.30;99.90;;;;;;5029629;28;20033;-65
2022/12/06 03:54:11;;;;;;;14.57;9.60;;;6.30;99.90;;;;;;5030248;28;20058;-65
2022/12/06 03:56:38;;;;;;;10.93;7.82;;;6.30;99.90;;;;;;5030010;28;20033;-65
2022/12/06 03:59:07;;;;;;;14.00;9.48;;;6.30;99.90;;;;;;5029262;28;20018;-66
2022/12/06 04:01:33;;;;;;;13.55;9.57;;;6.30;99.90;;;;;;5029652;28;20033;-65
2022/12/06 04:03:59;;;;;;;11.82;8.23;;;6.30;99.90;;;;;;5021714;28;20036;-65
2022/12/06 04:06:26;;;;;;;11.65;7.70;;;6.30;99.90;;;;;;5023893;28;20489;-65
2022/12/06 04:08:52;;;;;;;13.95;8.13;;;6.30;99.90;;;;;;5031215;28;20442;-65
2022/12/06 04:11:18;;;;;;;13.73;8.55;;;6.30;99.90;;;;;;5029056;28;20036;-65
2022/12/06 04:13:43;;;;;;;14.55;9.05;;;6.20;99.90;;;;;;5029960;28;20105;-66
2022/12/06 04:18:54;;;;;;;11.88;8.43;;;6.10;99.90;;;;;;5019558;28;20550;-67
2022/12/06 04:23:59;;;;;;;15.63;10.10;;;6.10;99.90;;;;;;5034807;28;20025;-67
2022/12/06 04:26:25;;;;;;;16.83;9.65;;;6.10;99.90;;;;;;5033224;28;20116;-67
2022/12/06 04:39:50;;;;;;;13.82;8.68;;;6.00;99.90;;;;;;5034257;28;20487;-66
2022/12/06 04:45:01;;;;;;;12.43;7.97;;;6.00;99.90;;;;;;5033727;28;20388;-67
2022/12/06 04:47:27;;;;;;;12.40;7.82;;;6.00;99.90;;;;;;5025779;28;20042;-67
2022/12/06 04:49:52;;;;;;;11.25;7.53;;;6.00;99.90;;;;;;5034969;28;20758;-67
2022/12/06 04:52:18;;;;;;;10.23;6.70;;;6.00;99.90;;;;;;5032656;28;20025;-66
2022/12/06 04:54:44;;;;;;;10.63;6.75;;;5.90;99.90;;;;;;5033425;28;20361;-66
2022/12/06 04:57:13;;;;;;;9.88;6.90;;;6.00;99.90;;;;;;5018343;28;20524;-66
2022/12/06 04:59:40;;;;;;;10.45;6.45;;;5.90;99.90;;;;;;5032495;28;20052;-67
2022/12/06 05:02:07;;;;;;;11.27;7.45;;;6.00;99.90;;;;;;5028968;28;20034;-67
2022/12/06 05:04:33;;;;;;;10.70;6.75;;;6.00;99.90;;;;;;5034275;28;20091;-66
2022/12/06 05:06:58;;;;;;;10.77;6.97;;;6.00;99.90;;;;;;5029277;28;20037;-66
2022/12/06 05:09:24;;;;;;;11.43;7.03;;;5.90;99.90;;;;;;5034034;28;20109;-66
2022/12/06 05:11:50;;;;;;;10.73;6.38;;;6.00;99.90;;;;;;5030646;28;20029;-66
2022/12/06 05:14:16;;;;;;;8.80;6.38;;;6.00;99.90;;;;;;5034023;28;20040;-66
2022/12/06 05:16:41;;;;;;;10.80;6.82;;;6.00;99.90;;;;;;5029704;28;20026;-65
2022/12/06 05:19:07;;;;;;;10.80;7.20;;;6.00;99.90;;;;;;5033685;28;20033;-66
2022/12/06 05:21:33;;;;;;;9.77;6.57;;;6.00;99.90;;;;;;5047407;28;20140;-67
2022/12/06 05:23:58;;;;;;;11.50;6.28;;;6.00;99.90;;;;;;5032898;28;20078;-66
2022/12/06 05:26:26;;;;;;;8.75;5.90;;;6.00;99.90;;;;;;5030552;28;20018;-66
2022/12/06 05:28:52;;;;;;;6.88;5.35;;;6.00;99.90;;;;;;5032933;28;20112;-66
2022/12/06 05:31:19;;;;;;;6.72;5.40;;;6.00;99.90;;;;;;5029921;28;20499;-66
2022/12/06 05:33:45;;;;;;;8.18;5.53;;;6.00;99.90;;;;;;5034055;28;20055;-66
2022/12/06 05:36:17;;;;;;;7.22;4.80;;;6.00;99.90;;;;;;5031309;28;20021;-66
2022/12/06 05:38:44;;;;;;;7.38;5.00;;;6.00;99.90;;;;;;5033095;28;20044;-66
2022/12/06 05:41:10;;;;;;;9.70;5.22;;;6.00;99.90;;;;;;5031006;28;20709;-66
2022/12/06 05:43:35;;;;;;;6.72;5.15;;;6.00;99.90;;;;;;5029907;28;20036;-67
2022/12/06 05:46:01;;;;;;;8.32;5.15;;;6.00;99.90;;;;;;5031872;28;20052;-67
2022/12/06 05:48:27;;;;;;;9.52;5.10;;;6.00;99.90;;;;;;5033361;28;20029;-67
2022/12/06 05:50:52;;;;;;;7.43;4.65;;;6.00;99.90;;;;;;5031290;28;20021;-68
2022/12/06 05:53:18;;;;;;;6.32;4.60;;;5.90;99.90;;;;;;5024517;28;20034;-66
2022/12/06 05:55:44;;;;;;;7.80;5.40;;;5.90;99.90;;;;;;5025483;28;20018;-66
2022/12/06 05:58:11;;;;;;;9.40;5.93;;;5.90;99.90;;;;;;5031166;28;20096;-67
2022/12/06 06:00:37;;;;;;;7.50;5.32;;;6.00;99.90;;;;;;5027362;28;20079;-67
2022/12/06 06:03:03;;;;;;;7.13;4.90;;;6.00;99.90;;;;;;5031954;28;20038;-66
2022/12/06 06:05:29;;;;;;;10.23;6.28;;;6.00;99.90;;;;;;5030568;28;20022;-66
2022/12/06 06:07:55;;;;;;;9.00;6.20;;;6.00;99.90;;;;;;5031881;28;20124;-66
2022/12/06 06:10:22;;;;;;;8.13;5.70;;;6.00;99.90;;;;;;5031455;28;20067;-67
2022/12/06 06:12:48;;;;;;;8.60;6.13;;;6.00;99.90;;;;;;5029424;28;20060;-66
2022/12/06 06:15:14;;;;;;;10.40;5.63;;;6.00;99.90;;;;;;5021298;28;20480;-66
2022/12/06 06:17:42;;;;;;;7.55;5.40;;;6.00;99.90;;;;;;5016719;28;20064;-66
2022/12/06 06:20:09;;;;;;;7.00;5.00;;;6.00;99.90;;;;;;5023326;28;20037;-67
2022/12/06 06:22:36;;;;;;;8.27;5.50;;;6.00;99.90;;;;;;5030692;28;20469;-66
2022/12/06 06:25:02;;;;;;;7.05;4.90;;;6.00;99.90;;;;;;5030920;28;20491;-66
2022/12/06 06:27:31;;;;;;;8.13;5.50;;;6.00;99.90;;;;;;5028423;28;20056;-66
2022/12/06 06:29:56;;;;;;;7.90;5.97;;;6.00;99.90;;;;;;5031592;28;20393;-66
2022/12/06 06:32:22;;;;;;;7.72;5.93;;;5.90;99.90;;;;;;5029644;28;20055;-66
2022/12/06 06:34:48;;;;;;;8.18;5.60;;;5.90;99.90;;;;;;5031545;28;20025;-67
2022/12/06 06:37:13;;;;;;;8.13;5.70;;;5.90;99.90;;;;;;5029991;28;20518;-67
2022/12/06 06:39:39;;;;;;;8.10;5.43;;;5.90;99.90;;;;;;5030299;28;20389;-67
2022/12/06 06:42:05;;;;;;;8.85;6.30;;;5.90;99.90;;;;;;5031365;28;20385;-66
2022/12/06 06:44:31;;;;;;;7.68;5.25;;;5.90;99.90;;;;;;5022752;28;20096;-66
2022/12/06 06:46:57;;;;;;;8.07;5.45;;;6.00;99.90;;;;;;5031228;28;20041;-66
2022/12/06 06:49:25;;;;;;;9.70;5.88;;;6.00;99.90;;;;;;5016836;28;20021;-66
2022/12/06 06:51:51;;;;;;;8.98;6.53;;;5.90;99.90;;;;;;5032087;28;20029;-65
2022/12/06 06:54:17;;;;;;;7.55;5.70;;;6.00;99.90;;;;;;5030278;28;20021;-66
2022/12/06 06:56:42;;;;;;;8.50;6.47;;;6.00;99.90;;;;;;5030969;28;20041;-67
2022/12/06 06:59:08;;;;;;;8.20;5.78;;;6.00;99.90;;;;;;5029917;28;20060;-67
2022/12/06 07:01:33;;;;;;;8.73;6.43;;;5.90;99.90;;;;;;5029244;28;20116;-67
2022/12/06 07:03:59;;;;;;;11.20;7.32;;;5.90;99.90;;;;;;5030552;28;20059;-67
2022/12/06 07:06:25;;;;;;;9.05;6.72;;;5.90;99.90;;;;;;5029775;28;20077;-67
2022/12/06 07:08:50;;;;;;;10.75;8.07;;;5.90;99.90;;;;;;5032056;28;20500;-67
2022/12/06 07:11:16;;;;;;;10.30;7.75;;;5.90;99.90;;;;;;5029965;28;20121;-66
2022/12/06 07:13:43;;;;;;;11.95;7.28;;;6.00;99.90;;;;;;5025265;28;20117;-67
2022/12/06 07:16:15;;;;;;;10.40;7.65;;;6.00;99.90;;;;;;5027783;28;20067;-66
2022/12/06 07:18:42;;;;;;;9.68;6.50;;;6.10;99.90;;;;;;5031531;28;20029;-67
2022/12/06 07:21:12;;;;;;;9.65;7.07;;;6.00;99.90;;;;;;5018865;28;20109;-67
2022/12/06 07:23:37;;;;;;;9.10;5.82;;;6.00;99.90;;;;;;5011680;28;20026;-67
2022/12/06 07:26:06;;;;;;;8.98;6.55;;;6.10;99.90;;;;;;5027348;28;20116;-67
2022/12/06 07:28:39;;;;;;;11.00;7.03;;;6.10;99.90;;;;;;5011990;28;20030;-67
2022/12/06 07:31:12;;;;;;;9.98;6.22;;;6.10;99.90;;;;;;5028292;28;20029;-67
2022/12/06 07:33:39;;;;;;;8.07;5.80;;;6.10;99.90;;;;;;5031286;28;20113;-67
2022/12/06 07:36:05;;;;;;;8.98;6.25;;;6.10;99.90;;;;;;5030321;28;20621;-67
2022/12/06 07:38:31;;;;;;;9.15;6.45;;;6.10;99.90;;;;;;5031331;28;20029;-66
2022/12/06 07:41:01;;;;;;;8.20;6.00;;;6.10;99.90;;;;;;5029162;28;20048;-66
2022/12/06 07:46:11;;;;;;;8.02;5.65;;;6.00;99.90;;;;;;5030292;28;20362;-66
2022/12/06 07:48:37;;;;;;;8.40;5.25;;;6.10;99.90;;;;;;5020925;28;20037;-67
2022/12/06 07:51:06;;;;;;;7.13;5.43;;;6.10;99.90;;;;;;5031647;28;20033;-66
2022/12/06 07:53:32;;;;;;;7.38;5.40;;;6.10;99.90;;;;;;5037148;28;20025;-66
2022/12/06 07:56:04;;;;;;;8.52;5.55;;;6.00;99.90;;;;;;5033227;28;20153;-65
2022/12/06 07:58:29;;;;;;;8.20;5.75;;;6.10;99.90;;;;;;5037318;28;20037;-65
2022/12/06 08:00:56;;;;;;;8.18;5.63;;;6.10;99.90;;;;;;5036574;28;20091;-68
2022/12/06 08:03:21;;;;;;;8.32;6.10;;;6.10;99.90;;;;;;5026800;28;20018;-68
2022/12/06 08:05:54;;;;;;;8.27;6.35;;;6.10;99.90;;;;;;5039579;28;20025;-68
2022/12/06 08:08:20;;;;;;;9.20;6.75;;;6.00;99.90;;;;;;5035298;28;20029;-69
2022/12/06 08:10:45;;;;;;;10.05;7.05;;;6.10;99.90;;;;;;5035746;28;20025;-68
2022/12/06 08:13:11;;;;;;;11.18;7.00;;;6.10;99.90;;;;;;5035101;28;20438;-68
2022/12/06 08:15:38;;;;;;;10.25;7.32;;;6.10;99.90;;;;;;5033889;28;20025;-68
2022/12/06 08:18:04;;;;;;;8.45;6.50;;;6.10;99.90;;;;;;5036464;28;20067;-69
2022/12/06 08:20:30;;;;;;;10.10;6.32;;;6.10;99.90;;;;;;5033821;28;20493;-69
2022/12/06 08:22:56;;;;;;;11.75;7.35;;;6.10;99.90;;;;;;5036084;28;20372;-69
2022/12/06 08:25:22;;;;;;;9.77;7.30;;;6.10;99.90;;;;;;5036383;28;20022;-69
2022/12/06 08:27:47;;;;;;;9.25;6.65;;;6.00;99.90;;;;;;5026082;28;20087;-68
2022/12/06 08:30:13;;;;;;;7.78;6.10;;;6.00;99.90;;;;;;5036894;28;20119;-69
2022/12/06 08:32:39;;;;;;;8.20;6.32;;;6.10;99.90;;;;;;5036983;28;20500;-68
2022/12/06 08:35:05;;;;;;;8.07;6.00;;;6.10;99.90;;;;;;5034491;28;20022;-69
2022/12/06 08:37:33;;;;;;;8.77;5.82;;;6.10;99.90;;;;;;5032594;28;20489;-69
2022/12/06 08:39:58;;;;;;;8.90;6.40;;;6.10;99.90;;;;;;5025475;28;20040;-67
2022/12/06 08:42:24;;;;;;;8.50;5.13;;;6.10;99.90;;;;;;5035811;28;20030;-67
2022/12/06 08:44:53;;;;;;;7.25;5.38;;;6.10;99.90;;;;;;5035737;28;20029;-68
2022/12/06 08:47:18;;;;;;;6.88;4.78;;;6.10;99.90;;;;;;5036980;28;20127;-68
2022/12/06 08:49:44;;;;;;;7.80;5.05;;;6.10;99.90;;;;;;5035648;28;20073;-69
2022/12/06 08:52:09;;;;;;;7.05;5.32;;;6.20;99.90;;;;;;5036711;28;20476;-68
2022/12/06 08:54:36;;;;;;;6.03;4.55;;;6.10;99.90;;;;;;5032355;28;20028;-67
2022/12/06 08:57:03;;;;;;;7.95;5.50;;;6.10;99.90;;;;;;5035814;28;20116;-67
2022/12/06 08:59:28;;;;;;;7.60;4.85;;;6.20;99.90;;;;;;5036396;28;20044;-67
2022/12/06 09:01:54;;;;;;;9.60;5.97;;;6.20;99.90;;;;;;5035460;28;20042;-67
2022/12/06 09:04:19;;;;;;;7.50;4.95;;;6.20;99.90;;;;;;5014584;28;20018;-67
2022/12/06 09:06:45;;;;;;;6.53;4.65;;;6.30;99.90;;;;;;5029479;28;20125;-67
2022/12/06 09:09:13;;;;;;;7.03;4.90;;;6.20;99.90;;;;;;5023614;28;20026;-67
2022/12/06 09:11:39;;;;;;;8.18;5.38;;;6.20;99.90;;;;;;5030581;28;20029;-67
2022/12/06 09:14:07;;;;;;;7.75;4.32;;;6.20;99.90;;;;;;5028559;28;20060;-66
2022/12/06 09:16:33;;;;;;;7.25;4.93;;;6.20;99.90;;;;;;5031009;28;20037;-67
2022/12/06 09:18:59;;;;;;;6.70;4.90;;;6.20;99.90;;;;;;5034026;28;20029;-68
2022/12/06 09:21:29;;;;;;;5.53;4.30;;;6.20;99.90;;;;;;5033148;28;20029;-69
2022/12/06 09:23:55;;;;;;;5.63;4.40;;;6.20;99.90;;;;;;5032976;28;20105;-71
2022/12/06 09:26:21;;;;;;;7.45;4.70;;;6.20;99.90;;;;;;5031896;28;20488;-70
2022/12/06 09:28:50;;;;;;;6.25;4.43;;;6.30;99.90;;;;;;5033457;28;20033;-70
2022/12/06 09:31:17;;;;;;;5.97;4.38;;;6.30;99.90;;;;;;5033270;28;20092;-69
2022/12/06 09:33:43;;;;;;;6.32;4.10;;;6.30;99.90;;;;;;5031263;28;20037;-69
2022/12/06 09:36:25;;;;;;;6.97;4.10;;;6.30;99.90;;;;;;5022546;28;20092;-70
2022/12/06 09:38:59;;;;;;;7.15;4.70;;;6.30;99.90;;;;;;5018389;28;20021;-69
2022/12/06 09:41:49;;;;;;;6.45;4.63;;;6.30;99.90;;;;;;5022979;28;20030;-69
2022/12/06 09:44:39;;;;;;;6.05;4.20;;;6.30;99.90;;;;;;5012446;28;20029;-70
2022/12/06 09:47:10;;;;;;;6.72;4.45;;;6.40;99.90;;;;;;5001052;28;20057;-70
2022/12/06 09:49:54;;;;;;;7.43;5.05;;;6.40;99.90;;;;;;5013778;28;20028;-69
2022/12/06 09:52:45;;;;;;;7.05;4.53;;;6.40;99.90;;;;;;5033089;28;20044;-70
2022/12/06 09:55:39;;;;;;;6.07;4.60;;;6.40;99.90;;;;;;5032385;28;20492;-70
2022/12/06 09:58:29;;;;;;;6.03;4.25;;;6.40;99.90;;;;;;5033450;28;20033;-70
2022/12/06 10:01:16;;;;;;;6.82;4.45;;;6.30;99.90;;;;;;5033214;28;20132;-70
2022/12/06 10:04:03;;;;;;;7.63;4.45;;;6.30;99.90;;;;;;5033465;28;20033;-71
2022/12/06 10:06:38;;;;;;;7.68;5.10;;;6.30;99.90;;;;;;5026564;28;20046;-70
2022/12/06 10:09:45;;;;;;;10.73;5.10;;;6.30;99.90;;;;;;5030539;28;20112;-70
2022/12/06 10:12:40;;;;;;;7.60;5.35;;;6.30;99.90;;;;;;5016883;28;20048;-70
2022/12/06 10:15:37;;;;;;;12.83;8.30;;;6.40;99.90;;;;;;5032284;28;20052;-69
2022/12/06 10:18:20;;;;;;;8.18;5.10;;;6.40;99.90;;;;;;5033026;28;20361;-71
2022/12/06 10:20:51;;;;;;;11.57;5.25;;;6.40;99.90;;;;;;5032069;28;20144;-71
2022/12/06 10:23:46;;;;;;;49.40;23.88;;;6.40;99.90;;;;;;5032910;28;20026;-70
2022/12/06 10:26:13;;;;;;;;;;;6.40;99.90;;;;;;5032269;28;20115;-71
2022/12/06 10:28:44;;;;;;;25.42;12.68;;;6.40;99.90;;;;;;5027014;28;19913;-71
2022/12/06 10:31:25;;;;;;;15.88;9.27;;;6.30;99.90;;;;;;5030527;28;20049;-71
2022/12/06 10:33:59;;;;;;;14.18;6.68;;;6.30;99.90;;;;;;5033137;28;20065;-71
2022/12/06 10:36:43;;;;;;;7.15;4.70;;;6.40;99.90;;;;;;5029060;28;20377;-71
2022/12/06 10:39:14;;;;;;;8.52;4.90;;;6.40;99.90;;;;;;5031687;28;20087;-71
2022/12/06 10:42:00;;;;;;;7.30;4.65;;;6.40;99.90;;;;;;5046921;28;20069;-70
2022/12/06 10:44:33;;;;;;;6.22;4.35;;;6.40;99.90;;;;;;5019801;28;20038;-71
2022/12/06 10:47:33;;;;;;;4.95;3.60;;;6.40;99.90;;;;;;5025993;28;20093;-70
2022/12/06 10:50:13;;;;;;;5.97;4.20;;;6.40;99.90;;;;;;5012766;28;20491;-71
2022/12/06 10:52:47;;;;;;;6.35;4.65;;;6.40;99.90;;;;;;5012696;28;20395;-71
2022/12/06 10:55:28;;;;;;;5.63;3.53;;;6.30;99.90;;;;;;5029849;28;20025;-71
2022/12/06 10:57:57;;;;;;;7.85;3.83;;;6.40;99.90;;;;;;5032733;28;20384;-70
2022/12/06 11:00:25;;;;;;;8.30;3.65;;;6.40;99.90;;;;;;5032497;28;20176;-71
2022/12/06 11:03:09;;;;;;;6.70;4.30;;;6.40;99.90;;;;;;5030455;28;20083;-71
2022/12/06 11:05:56;;;;;;;5.78;3.80;;;6.40;99.90;;;;;;5031494;28;20472;-70
2022/12/06 11:08:31;;;;;;;6.68;3.75;;;6.40;99.90;;;;;;5031152;28;20362;-70
2022/12/06 11:10:58;;;;;;;5.63;3.53;;;6.40;99.90;;;;;;5018438;28;20034;-70
2022/12/06 11:13:39;;;;;;;5.18;3.97;;;6.50;99.90;;;;;;5031791;28;20040;-70
2022/12/06 11:16:12;;;;;;;4.68;3.40;;;6.60;99.90;;;;;;5022239;28;20029;-71
2022/12/06 11:18:39;;;;;;;5.80;4.25;;;6.50;99.90;;;;;;5029758;28;20460;-73
2022/12/06 11:21:19;;;;;;;6.07;4.30;;;6.60;99.90;;;;;;5029155;28;20492;-71
2022/12/06 11:24:11;;;;;;;8.10;4.50;;;6.60;99.90;;;;;;5031840;28;20468;-70
2022/12/06 11:26:48;;;;;;;5.68;4.00;;;6.60;99.90;;;;;;5029250;28;20053;-70
2022/12/06 11:29:15;;;;;;;7.10;4.78;;;6.60;99.90;;;;;;5012088;28;20034;-70
2022/12/06 11:31:45;;;;;;;6.70;4.82;;;6.50;99.90;;;;;;5023331;28;20033;-72
2022/12/06 11:34:22;;;;;;;7.97;5.50;;;6.50;99.90;;;;;;5031422;28;20025;-69
2022/12/06 11:36:53;;;;;;;9.10;4.65;;;6.50;99.90;;;;;;5030911;28;20032;-70
2022/12/06 11:39:20;;;;;;;7.63;5.15;;;6.50;99.90;;;;;;5022140;28;20025;-69
2022/12/06 11:41:53;;;;;;;7.38;4.97;;;6.50;99.90;;;;;;5037129;28;20520;-70
2022/12/06 11:44:28;;;;;;;8.05;5.25;;;6.50;99.90;;;;;;5031113;28;20021;-68
2022/12/06 11:46:57;;;;;;;6.20;4.93;;;6.50;99.90;;;;;;5030498;28;20038;-69
2022/12/06 11:49:33;;;;;;;7.10;4.95;;;6.50;99.90;;;;;;5031173;28;20038;-69
2022/12/06 11:52:07;;;;;;;8.35;4.85;;;6.50;99.90;;;;;;5030677;28;20043;-69
2022/12/06 11:54:38;;;;;;;10.18;5.63;;;6.50;99.90;;;;;;5015071;28;20026;-69
2022/12/06 11:57:21;;;;;;;6.63;4.75;;;6.50;99.90;;;;;;5025152;28;20044;-68
2022/12/06 12:00:09;;;;;;;7.38;5.05;;;6.50;99.90;;;;;;5032222;28;20072;-68
2022/12/06 12:02:35;;;;;;;6.78;5.47;;;6.50;99.90;;;;;;5031530;28;20065;-69
2022/12/06 12:05:22;;;;;;;9.10;6.25;;;6.50;99.90;;;;;;5030645;28;20118;-69
2022/12/06 12:08:01;;;;;;;8.65;6.15;;;6.60;99.90;;;;;;5029094;28;20438;-69
2022/12/06 12:10:34;;;;;;;10.52;5.78;;;6.60;99.90;;;;;;5023904;28;20292;-67
2022/12/06 12:16:01;;;;;;;8.20;5.35;;;6.60;99.90;;;;;;5020765;28;20033;-68
2022/12/06 12:18:34;;;;;;;8.93;5.47;;;6.60;99.90;;;;;;5031256;28;20029;-67
2022/12/06 12:21:01;;;;;;;9.43;6.43;;;6.60;99.90;;;;;;5026576;28;20113;-67
2022/12/06 12:23:34;;;;;;;11.82;5.80;;;6.50;99.90;;;;;;5027006;28;20033;-68
2022/12/06 12:26:13;;;;;;;7.25;4.70;;;6.50;99.90;;;;;;5030099;28;20034;-68
2022/12/06 12:28:40;;;;;;;5.93;4.10;;;6.60;99.90;;;;;;5030644;28;20057;-68
2022/12/06 12:31:20;;;;;;;6.10;3.97;;;6.50;99.90;;;;;;5030296;28;20108;-68
2022/12/06 12:33:46;;;;;;;6.95;4.85;;;6.60;99.90;;;;;;5031196;28;20042;-67
2022/12/06 12:36:27;;;;;;;7.90;4.97;;;6.50;99.90;;;;;;5024987;28;20033;-68
2022/12/06 12:39:01;;;;;;;7.82;5.28;;;6.50;99.90;;;;;;5035676;28;20083;-67
2022/12/06 12:41:38;;;;;;;6.75;4.93;;;6.50;99.90;;;;;;5038247;28;20045;-67
2022/12/06 12:44:14;;;;;;;7.55;5.13;;;6.50;99.90;;;;;;5022970;28;20083;-69
2022/12/06 12:46:44;;;;;;;6.07;5.03;;;6.50;99.90;;;;;;5033964;28;20052;-67
2022/12/06 12:49:29;;;;;;;6.55;5.03;;;6.50;99.90;;;;;;5034711;28;20036;-68
2022/12/06 12:51:56;;;;;;;6.35;5.00;;;6.40;99.90;;;;;;5033456;28;20064;-68
2022/12/06 12:54:24;;;;;;;6.93;5.35;;;6.40;99.90;;;;;;5034730;28;20112;-68
2022/12/06 12:56:50;;;;;;;6.53;4.95;;;6.40;99.90;;;;;;5048814;28;20503;-67
2022/12/06 12:59:19;;;;;;;6.80;5.00;;;6.40;99.90;;;;;;5034399;28;20116;-69
2022/12/06 13:01:50;;;;;;;7.22;4.63;;;6.40;99.90;;;;;;5023964;28;20077;-68
2022/12/06 13:04:35;;;;;;;5.63;3.85;;;6.40;99.90;;;;;;5018155;28;20084;-68
2022/12/06 13:07:05;;;;;;;5.13;3.40;;;6.40;99.90;;;;;;5026330;28;20037;-69
2022/12/06 13:09:54;;;;;;;6.78;4.10;;;6.30;99.90;;;;;;5019636;28;20022;-68
2022/12/06 13:12:24;;;;;;;6.40;4.45;;;6.40;99.90;;;;;;5019151;28;20038;-68
2022/12/06 13:15:03;;;;;;;5.97;3.75;;;6.40;99.90;;;;;;5027526;28;20029;-69
2022/12/06 13:17:32;;;;;;;5.35;3.60;;;6.30;99.90;;;;;;5030683;28;20038;-69
2022/12/06 13:19:59;;;;;;;6.05;4.10;;;6.40;99.90;;;;;;5033626;28;20061;-69
2022/12/06 13:22:30;;;;;;;7.00;4.13;;;6.40;99.90;;;;;;5032093;28;20041;-69
2022/12/06 13:25:00;;;;;;;5.45;3.80;;;6.40;99.90;;;;;;5034054;28;20449;-69
2022/12/06 13:27:31;;;;;;;5.35;3.97;;;6.40;99.90;;;;;;5032864;28;20128;-68
2022/12/06 13:30:11;;;;;;;5.18;3.50;;;6.40;99.90;;;;;;5031517;28;20511;-70
2022/12/06 13:32:55;;;;;;;3.72;3.17;;;6.40;99.90;;;;;;5030905;28;20033;-68
2022/12/06 13:35:27;;;;;;;5.40;3.85;;;6.40;99.90;;;;;;5033718;28;20073;-68
2022/12/06 13:38:00;;;;;;;5.18;3.75;;;6.40;99.90;;;;;;5032114;28;20044;-68
2022/12/06 13:40:31;;;;;;;5.88;3.80;;;6.40;99.90;;;;;;5028620;28;20468;-69